Benchland, Montana
Current Conditions -  °F | °C
As of 7:54 PM on Thursday 18 Dec 2014 (Local Time) from KLWT Reporting Station
Clear Clear  
Wind Chill: 32°   Ceiling: Unl
Heat Index: 36°   Visibility: 10mi
Dew Point: 24°   Wind: 5mph
Humidity: 62%   Direction: 250°WSW
Pressure: 29.92"   Gusts: NA
Location:  47.1096°N, 109.884°W
Report Text: KLWT 190254Z AUTO 25004KT 10SM CLR 02/M04 A2992 RMK AO2 SLP159 T00221044 53001
Loading
Personal Weather Stations






























Interactive Weather Map New forecast layout! Learn more

10-Day Weather Forecast

Advertisements
Track Severe Weather on mobile